Time;durP1;ratioP1;P1;durP2;ratioP2;P2;SDS_P1;SDS_P2;PMS_P1;PMS_P2;Temp;Humidity;BMP_temperature;BMP_pressure;BME280_temperature;BME280_humidity;BME280_pressure;Samples;Min_cycle;Max_cycle;Signal;HPM_P1;HPM_P2
2022/02/20 00:02:07;;;;;;;11.10;2.75;;;;;;;2.27;100.00;100274.69;4859616;29;20051;-76
2022/02/20 00:04:33;;;;;;;14.68;2.55;;;;;;;2.28;100.00;100267.75;4856894;29;20047;-76
2022/02/20 00:06:59;;;;;;;6.75;2.15;;;;;;;2.28;100.00;100272.91;4874923;29;20136;-76
2022/02/20 00:09:24;;;;;;;8.18;2.35;;;;;;;2.28;100.00;100267.75;4876408;29;20037;-80
2022/02/20 00:11:50;;;;;;;8.18;2.20;;;;;;;2.27;100.00;100251.41;4859786;29;20045;-76
2022/02/20 00:14:16;;;;;;;9.02;2.20;;;;;;;2.34;100.00;100263.00;4843523;29;20072;-77
2022/02/20 00:16:41;;;;;;;5.40;1.63;;;;;;;2.25;100.00;100253.25;4874397;29;20324;-77
2022/02/20 00:19:07;;;;;;;9.57;2.08;;;;;;;2.31;100.00;100252.00;4868975;29;20040;-77
2022/02/20 00:21:33;;;;;;;8.70;2.13;;;;;;;2.38;100.00;100257.63;4858031;29;20060;-77
2022/02/20 00:23:59;;;;;;;8.10;2.50;;;;;;;2.32;100.00;100257.09;4856457;29;20040;-76
2022/02/20 00:26:24;;;;;;;7.63;1.88;;;;;;;2.28;100.00;100250.47;4865660;29;20423;-77
2022/02/20 00:28:50;;;;;;;6.35;1.80;;;;;;;2.25;100.00;100250.69;4858524;29;20104;-76
2022/02/20 00:31:18;;;;;;;7.10;1.95;;;;;;;2.41;100.00;100252.22;4858272;29;20041;-76
2022/02/20 00:33:44;;;;;;;8.98;2.13;;;;;;;2.30;100.00;100255.56;4874259;29;20108;-76
2022/02/20 00:36:11;;;;;;;4.55;1.55;;;;;;;2.33;100.00;100257.91;4857470;29;20053;-77
2022/02/20 00:38:37;;;;;;;7.68;1.77;;;;;;;2.24;100.00;100250.78;4858548;29;20041;-77
2022/02/20 00:41:03;;;;;;;7.28;1.80;;;;;;;2.20;100.00;100254.50;4852904;29;20041;-77
2022/02/20 00:43:28;;;;;;;6.45;1.83;;;;;;;2.27;100.00;100246.22;4865972;29;20073;-76
2022/02/20 00:45:54;;;;;;;4.82;1.40;;;;;;;2.30;100.00;100261.56;4872825;29;20045;-78
2022/02/20 00:48:21;;;;;;;4.65;1.45;;;;;;;2.28;100.00;100268.59;4839973;29;20104;-76
2022/02/20 00:50:48;;;;;;;7.00;2.05;;;;;;;2.23;100.00;100270.66;4856228;29;20060;-77
2022/02/20 00:53:14;;;;;;;4.05;1.40;;;;;;;2.24;100.00;100269.75;4857670;29;20068;-78
2022/02/20 00:55:40;;;;;;;4.32;1.60;;;;;;;2.21;100.00;100264.75;4879174;29;20606;-79
2022/02/20 00:58:05;;;;;;;4.07;1.52;;;;;;;2.22;100.00;100261.22;4872779;29;20041;-76
2022/02/20 01:00:31;;;;;;;3.55;1.38;;;;;;;2.24;100.00;100267.16;4866230;29;20041;-78
2022/02/20 01:02:59;;;;;;;5.50;1.58;;;;;;;2.28;100.00;100262.56;4842152;29;20072;-77
2022/02/20 01:05:25;;;;;;;4.13;1.58;;;;;;;2.26;100.00;100267.88;4848861;29;20742;-77
2022/02/20 01:07:51;;;;;;;2.78;1.40;;;;;;;2.07;100.00;100239.84;4841964;29;20083;-77
2022/02/20 01:10:18;;;;;;;5.80;1.65;;;;;;;2.16;100.00;100259.06;4854609;29;20742;-77
2022/02/20 01:12:44;;;;;;;3.80;1.40;;;;;;;2.28;100.00;100259.97;4855345;29;20466;-77
2022/02/20 01:15:12;;;;;;;5.50;1.70;;;;;;;2.19;100.00;100258.03;4871168;29;20460;-77
2022/02/20 01:17:38;;;;;;;6.95;1.70;;;;;;;2.12;100.00;100252.44;4839267;29;20041;-77
2022/02/20 01:20:06;;;;;;;3.15;1.60;;;;;;;2.29;100.00;100257.28;4856739;29;20041;-77
2022/02/20 01:22:31;;;;;;;5.20;2.05;;;;;;;2.24;100.00;100256.81;4842734;29;20033;-77
2022/02/20 01:24:57;;;;;;;7.97;1.83;;;;;;;2.19;100.00;100256.28;4858248;29;20079;-77
2022/02/20 01:27:24;;;;;;;4.63;1.75;;;;;;;2.16;100.00;100261.66;4875756;29;20049;-78
2022/02/20 01:29:50;;;;;;;2.55;1.40;;;;;;;2.20;100.00;100267.44;4843275;29;20044;-77
2022/02/20 01:32:17;;;;;;;4.25;1.60;;;;;;;2.23;100.00;100265.47;4869268;29;20033;-77
2022/02/20 01:34:43;;;;;;;1.92;1.30;;;;;;;2.26;100.00;100279.97;4861655;29;20036;-79
2022/02/20 01:37:08;;;;;;;3.25;1.50;;;;;;;2.22;100.00;100275.94;4867130;29;20124;-77
2022/02/20 01:39:34;;;;;;;3.35;1.40;;;;;;;2.19;100.00;100279.56;4860598;29;20104;-76
2022/02/20 01:42:07;;;;;;;3.72;1.52;;;;;;;2.11;100.00;100276.66;4875046;29;20043;-78
2022/02/20 01:44:33;;;;;;;4.10;1.73;;;;;;;2.12;100.00;100268.78;4858113;29;20033;-78
2022/02/20 01:47:10;;;;;;;4.32;1.60;;;;;;;2.19;100.00;100274.38;4873402;29;20109;-78
2022/02/20 01:49:38;;;;;;;5.18;1.42;;;;;;;2.20;100.00;100265.69;4876750;29;20508;-77
2022/02/20 01:52:04;;;;;;;3.20;1.20;;;;;;;2.19;100.00;100266.63;4872742;29;20038;-78
2022/02/20 01:54:30;;;;;;;2.17;1.30;;;;;;;2.16;100.00;100268.59;4857535;29;20551;-79
2022/02/20 01:56:56;;;;;;;2.95;1.60;;;;;;;2.12;100.00;100270.56;4874509;29;20041;-78
2022/02/20 01:59:45;;;;;;;2.63;1.30;;;;;;;2.16;100.00;100276.34;4877412;29;20040;-77
2022/02/20 02:02:22;;;;;;;1.50;1.40;;;;;;;2.03;100.00;100269.41;4850717;29;20040;-78
2022/02/20 02:04:58;;;;;;;6.50;1.38;;;;;;;2.01;100.00;100273.03;4864152;29;20048;-78
2022/02/20 02:07:26;;;;;;;3.75;1.67;;;;;;;2.00;100.00;100269.63;4876586;29;20049;-79
2022/02/20 02:09:54;;;;;;;4.07;1.45;;;;;;;1.92;100.00;100269.28;4872645;29;20045;-78
2022/02/20 02:12:53;;;;;;;2.30;1.38;;;;;;;1.90;100.00;100284.09;4865869;29;20036;-80
2022/02/20 02:15:34;;;;;;;2.33;1.30;;;;;;;2.03;100.00;100274.59;4860434;29;20041;-79
2022/02/20 02:18:10;;;;;;;3.47;1.38;;;;;;;2.08;100.00;100276.88;4862641;29;20036;-78
2022/02/20 02:20:50;;;;;;;3.65;1.50;;;;;;;1.97;100.00;100272.41;4878245;29;20065;-78
2022/02/20 02:23:42;;;;;;;7.07;1.55;;;;;;;1.98;100.00;100291.34;4868495;29;20101;-78
2022/02/20 02:26:13;;;;;;;5.40;1.60;;;;;;;1.85;100.00;100274.06;4874573;29;20044;-78
2022/02/20 02:28:42;;;;;;;4.15;1.70;;;;;;;1.91;100.00;100276.25;4871851;29;20029;-78
2022/02/20 02:31:13;;;;;;;2.45;1.48;;;;;;;1.91;100.00;100265.88;4877104;29;20060;-78
2022/02/20 02:33:40;;;;;;;3.28;2.20;;;;;;;2.06;100.00;100261.44;4872508;29;20029;-78
2022/02/20 02:36:08;;;;;;;3.78;2.10;;;;;;;2.00;100.00;100274.81;4878963;29;20037;-78
2022/02/20 02:38:35;;;;;;;4.45;1.90;;;;;;;1.89;100.00;100270.34;4861304;29;20025;-77
2022/02/20 02:41:06;;;;;;;3.42;2.20;;;;;;;1.87;100.00;100274.78;4863868;29;20044;-77
2022/02/20 02:43:36;;;;;;;2.40;2.20;;;;;;;1.88;100.00;100284.19;4859881;29;20064;-78
2022/02/20 02:46:02;;;;;;;2.30;2.10;;;;;;;1.82;100.00;100282.03;4848348;29;20036;-79
2022/02/20 02:48:28;;;;;;;4.90;2.10;;;;;;;1.77;100.00;100278.91;4873698;29;20049;-78
2022/02/20 02:50:54;;;;;;;3.70;2.50;;;;;;;1.86;100.00;100290.41;4863116;29;20105;-77
2022/02/20 02:53:20;;;;;;;4.57;2.88;;;;;;;2.03;100.00;100312.56;4845709;29;20082;-78
2022/02/20 02:55:49;;;;;;;3.28;2.78;;;;;;;2.13;100.00;100303.28;4846136;29;20093;-78
2022/02/20 02:58:19;;;;;;;4.53;3.17;;;;;;;1.98;100.00;100309.44;4861424;29;20152;-78
2022/02/20 03:00:47;;;;;;;6.45;3.53;;;;;;;2.06;100.00;100313.19;4856277;29;20101;-78
2022/02/20 03:03:13;;;;;;;5.60;3.75;;;;;;;2.08;100.00;100315.69;4846273;29;20108;-78
2022/02/20 03:05:40;;;;;;;5.57;3.65;;;;;;;1.94;100.00;100311.41;4861911;29;20104;-79
2022/02/20 03:08:06;;;;;;;4.40;3.70;;;;;;;1.75;100.00;100324.72;4872758;29;20124;-77
2022/02/20 03:10:32;;;;;;;7.05;4.13;;;;;;;1.53;100.00;100310.63;4863192;29;20384;-79
2022/02/20 03:12:58;;;;;;;6.10;4.60;;;;;;;1.49;100.00;100335.00;4861393;29;20050;-77
2022/02/20 03:15:23;;;;;;;8.35;5.30;;;;;;;1.50;100.00;100336.66;4861886;29;20045;-77
2022/02/20 03:17:49;;;;;;;7.10;5.43;;;;;;;1.57;100.00;100336.28;4845421;29;20052;-77
2022/02/20 03:20:15;;;;;;;7.45;5.47;;;;;;;1.53;100.00;100320.13;4867184;29;20052;-78
2022/02/20 03:22:43;;;;;;;11.43;6.78;;;;;;;1.83;100.00;100348.34;4877687;29;20088;-77
2022/02/20 03:25:09;;;;;;;6.95;6.10;;;;;;;1.77;100.00;100351.31;4874161;29;20116;-77
2022/02/20 03:27:37;;;;;;;10.50;6.40;;;;;;;1.70;100.00;100350.06;4873254;29;20041;-77
2022/02/20 03:30:09;;;;;;;9.73;6.50;;;;;;;1.72;100.00;100359.38;4860806;29;20040;-78
2022/02/20 03:32:40;;;;;;;7.95;6.75;;;;;;;1.70;100.00;100347.47;4876752;29;20430;-79
2022/02/20 03:35:06;;;;;;;10.10;7.13;;;;;;;1.90;100.00;100359.09;4854405;29;20101;-77
2022/02/20 03:37:32;;;;;;;8.88;6.65;;;;;;;1.90;100.00;100365.13;4863085;29;20124;-78
2022/02/20 03:39:58;;;;;;;9.77;7.68;;;;;;;1.97;100.00;100373.28;4861231;29;20068;-78
2022/02/20 03:42:24;;;;;;;10.38;7.38;;;;;;;2.18;100.00;100391.75;4860578;29;20052;-78
2022/02/20 03:45:13;;;;;;;10.98;8.20;;;;;;;2.13;100.00;100388.66;4850285;29;20117;-78
2022/02/20 03:47:45;;;;;;;12.07;8.38;;;;;;;2.11;100.00;100400.84;4846612;29;20043;-78
2022/02/20 03:50:12;;;;;;;11.68;8.90;;;;;;;2.28;100.00;100408.34;4850927;29;20060;-79
2022/02/20 03:52:42;;;;;;;11.98;8.48;;;;;;;2.14;100.00;100411.81;4880589;29;20119;-78
2022/02/20 03:55:14;;;;;;;13.60;9.60;;;;;;;2.11;100.00;100421.53;4872705;29;20029;-77
2022/02/20 03:57:44;;;;;;;16.80;10.63;;;;;;;2.29;100.00;100422.94;4862975;29;20132;-77
2022/02/20 04:00:22;;;;;;;12.60;9.75;;;;;;;2.28;100.00;100428.19;4863529;29;20055;-77
2022/02/20 04:02:58;;;;;;;13.27;9.90;;;;;;;2.13;100.00;100432.66;4861974;29;20432;-77
2022/02/20 04:05:24;;;;;;;14.75;10.70;;;;;;;2.04;100.00;100426.31;4860491;29;20419;-79
2022/02/20 04:07:49;;;;;;;13.63;10.10;;;;;;;2.23;100.00;100440.63;4845520;29;20519;-77
2022/02/20 04:10:19;;;;;;;14.95;10.93;;;;;;;2.17;100.00;100436.69;4845453;29;20049;-76
2022/02/20 04:12:46;;;;;;;13.85;10.85;;;;;;;2.28;100.00;100441.16;4861576;29;20461;-77
2022/02/20 04:15:15;;;;;;;15.10;11.30;;;;;;;2.36;100.00;100453.63;4861477;29;20068;-78
2022/02/20 04:17:43;;;;;;;14.63;11.15;;;;;;;2.37;100.00;100456.06;4858616;29;20033;-76
2022/02/20 04:20:10;;;;;;;15.05;11.20;;;;;;;2.41;100.00;100461.88;4867012;29;20313;-77
2022/02/20 04:22:36;;;;;;;17.02;12.02;;;;;;;2.34;100.00;100467.47;4861148;29;20056;-79
2022/02/20 04:25:03;;;;;;;14.82;11.98;;;;;;;2.32;100.00;100460.75;4858055;29;20043;-79
2022/02/20 04:27:29;;;;;;;17.30;11.50;;;;;;;2.30;100.00;100468.59;4874465;29;20845;-79
2022/02/20 04:29:55;;;;;;;16.15;11.75;;;;;;;2.31;100.00;100482.38;4857451;29;20124;-79
2022/02/20 04:32:21;;;;;;;17.75;12.48;;;;;;;2.32;100.00;100474.50;4840458;29;20511;-79
2022/02/20 04:34:47;;;;;;;15.60;12.13;;;;;;;2.36;100.00;100488.09;4844142;29;20040;-79
2022/02/20 04:37:13;;;;;;;18.00;11.52;;;;;;;2.27;100.00;100494.69;4860505;29;20047;-79
2022/02/20 04:39:39;;;;;;;16.17;12.32;;;;;;;2.29;100.00;100489.41;4875278;29;20041;-78
2022/02/20 04:42:06;;;;;;;18.52;13.18;;;;;;;2.38;100.00;100488.81;4842348;29;20040;-77
2022/02/20 04:44:40;;;;;;;15.75;12.38;;;;;;;2.35;100.00;100494.19;4858406;29;20034;-79
2022/02/20 04:47:11;;;;;;;17.30;12.70;;;;;;;2.36;100.00;100495.03;4854649;29;20033;-79
2022/02/20 04:49:38;;;;;;;18.05;12.68;;;;;;;2.28;100.00;100477.38;4845859;29;20093;-79
2022/02/20 04:52:18;;;;;;;19.30;12.90;;;;;;;2.37;100.00;100484.53;4837775;29;20048;-79
2022/02/20 04:54:58;;;;;;;17.45;12.13;;;;;;;2.25;100.00;100491.34;4851742;29;20033;-79
2022/02/20 04:57:24;;;;;;;16.85;12.35;;;;;;;2.30;100.00;100491.91;4856838;29;20037;-79
2022/02/20 04:59:55;;;;;;;17.77;12.73;;;;;;;2.44;100.00;100491.00;4863919;29;20029;-80
2022/02/20 05:02:23;;;;;;;20.30;13.27;;;;;;;2.44;100.00;100488.41;4853181;29;20037;-80
2022/02/20 05:04:50;;;;;;;17.95;12.93;;;;;;;2.50;100.00;100487.16;4842934;29;20455;-78
2022/02/20 05:07:16;;;;;;;18.65;12.75;;;;;;;2.45;100.00;100487.47;4853450;29;20524;-79
2022/02/20 05:09:42;;;;;;;19.15;12.68;;;;;;;2.50;100.00;100502.69;4868169;29;20048;-79
2022/02/20 05:12:08;;;;;;;22.20;13.43;;;;;;;2.52;100.00;100498.25;4866498;29;20068;-79
2022/02/20 05:14:34;;;;;;;21.35;13.27;;;;;;;2.40;100.00;100493.88;4862592;29;20030;-78
2022/02/20 05:17:26;;;;;;;18.70;13.13;;;;;;;2.47;100.00;100488.22;4844526;29;20504;-79
2022/02/20 05:19:56;;;;;;;20.90;13.95;;;;;;;2.51;100.00;100501.78;4853573;29;20063;-79
2022/02/20 05:22:23;;;;;;;20.83;14.75;;;;;;;2.44;100.00;100485.00;4863031;29;20435;-80
2022/02/20 05:24:56;;;;;;;21.10;15.18;;;;;;;2.33;100.00;100472.75;4864335;29;20029;-79
2022/02/20 05:27:22;;;;;;;18.05;13.05;;;;;;;2.49;100.00;100476.00;4858759;29;20056;-78
2022/02/20 05:29:50;;;;;;;18.90;12.23;;;;;;;2.56;100.00;100483.34;4858495;29;20064;-78
2022/02/20 05:32:23;;;;;;;21.42;12.25;;;;;;;2.43;100.00;100471.22;4869959;29;20115;-80
2022/02/20 05:35:14;;;;;;;19.42;13.57;;;;;;;2.39;100.00;100474.09;4853864;29;20068;-79
2022/02/20 05:37:43;;;;;;;17.48;12.48;;;;;;;2.52;100.00;100480.13;4875500;29;20033;-78
2022/02/20 05:40:12;;;;;;;16.73;11.95;;;;;;;2.53;100.00;100477.44;4855881;29;20045;-79
2022/02/20 05:42:46;;;;;;;16.90;11.75;;;;;;;2.51;100.00;100484.50;4869158;29;20506;-79
2022/02/20 05:45:12;;;;;;;18.42;11.85;;;;;;;2.46;100.00;100468.41;4861195;29;20482;-79
2022/02/20 05:47:38;;;;;;;17.40;11.70;;;;;;;2.56;100.00;100473.00;4853990;29;20065;-78
2022/02/20 05:50:08;;;;;;;19.55;12.55;;;;;;;2.49;100.00;100480.34;4870625;29;20041;-79
2022/02/20 05:52:35;;;;;;;19.23;12.55;;;;;;;2.43;100.00;100475.56;4863196;29;20100;-78
2022/02/20 05:55:02;;;;;;;17.23;11.25;;;;;;;2.50;100.00;100482.00;4861726;29;20080;-78
2022/02/20 05:57:30;;;;;;;18.33;12.48;;;;;;;2.37;100.00;100469.00;4858187;29;20372;-79
2022/02/20 05:59:58;;;;;;;19.33;12.95;;;;;;;2.46;100.00;100470.19;4855390;29;20062;-78
2022/02/20 06:02:24;;;;;;;20.73;12.27;;;;;;;2.53;100.00;100467.09;4859150;29;20045;-78
2022/02/20 06:04:51;;;;;;;18.52;12.80;;;;;;;2.53;100.00;100471.44;4860321;29;20041;-79
2022/02/20 06:07:52;;;;;;;17.00;12.02;;;;;;;2.53;100.00;100467.09;4848051;29;20464;-78
2022/02/20 06:10:26;;;;;;;23.13;12.15;;;;;;;2.46;100.00;100475.38;4867893;29;20073;-78
2022/02/20 06:13:01;;;;;;;17.10;12.20;;;;;;;2.53;100.00;100474.03;4858169;29;20037;-78
2022/02/20 06:15:46;;;;;;;19.25;12.30;;;;;;;2.47;100.00;100475.25;4858304;29;20044;-79
2022/02/20 06:18:20;;;;;;;20.00;12.25;;;;;;;2.56;100.00;100478.16;4853259;29;20041;-78
2022/02/20 06:21:06;;;;;;;19.67;12.43;;;;;;;2.50;100.00;100476.81;4848292;29;20052;-78
2022/02/20 06:23:54;;;;;;;20.27;12.23;;;;;;;2.48;100.00;100470.91;4865558;29;20135;-79
2022/02/20 06:26:29;;;;;;;20.52;11.70;;;;;;;2.45;100.00;100476.28;4859698;29;20041;-78
2022/02/20 06:28:54;;;;;;;24.63;12.15;;;;;;;2.42;100.00;100477.31;4877460;29;20124;-79
2022/02/20 06:31:21;;;;;;;18.95;12.95;;;;;;;2.46;100.00;100478.78;4872326;29;20547;-79
2022/02/20 06:33:51;;;;;;;21.70;13.48;;;;;;;2.48;100.00;100479.50;4888641;29;20072;-79
2022/02/20 06:36:17;;;;;;;20.17;13.05;;;;;;;2.50;100.00;100488.00;4859814;29;20103;-79
2022/02/20 06:38:46;;;;;;;20.15;13.43;;;;;;;2.48;100.00;100486.44;4871116;29;20076;-78
2022/02/20 06:41:14;;;;;;;21.52;12.35;;;;;;;2.51;100.00;100487.06;4859950;29;20041;-79
2022/02/20 06:43:49;;;;;;;19.13;11.88;;;;;;;2.52;100.00;100482.72;4844957;29;20097;-77
2022/02/20 06:46:38;;;;;;;18.10;12.32;;;;;;;2.53;100.00;100492.16;4842204;29;20060;-78
2022/02/20 06:49:08;;;;;;;18.40;12.10;;;;;;;2.57;100.00;100479.84;4858986;29;20112;-79
2022/02/20 06:51:51;;;;;;;16.65;10.98;;;;;;;2.53;100.00;100479.22;4865903;29;20096;-77
2022/02/20 06:54:35;;;;;;;15.38;9.90;;;;;;;2.52;100.00;100474.94;4870143;29;20049;-77
2022/02/20 06:57:09;;;;;;;17.80;9.18;;;;;;;2.52;100.00;100473.22;4875685;29;20041;-77
2022/02/20 06:59:35;;;;;;;16.88;10.13;;;;;;;2.48;100.00;100461.38;4861405;29;20538;-77
2022/02/20 07:02:01;;;;;;;14.43;9.60;;;;;;;2.56;100.00;100480.75;4876795;29;20081;-77
2022/02/20 07:04:28;;;;;;;14.60;9.32;;;;;;;2.49;100.00;100470.00;4862734;29;20045;-77
2022/02/20 07:06:54;;;;;;;17.38;9.30;;;;;;;2.56;100.00;100471.22;4859707;29;20207;-77
2022/02/20 07:09:20;;;;;;;12.45;8.05;;;;;;;2.55;100.00;100474.75;4843168;29;20124;-77
2022/02/20 07:11:45;;;;;;;11.40;8.15;;;;;;;2.56;100.00;100475.59;4857972;29;20045;-77
2022/02/20 07:14:11;;;;;;;11.35;7.78;;;;;;;2.53;100.00;100486.97;4875556;29;20041;-77
2022/02/20 07:16:37;;;;;;;10.43;7.13;;;;;;;2.62;100.00;100480.34;4839841;29;20037;-78
2022/02/20 07:19:02;;;;;;;14.38;7.65;;;;;;;2.53;100.00;100467.09;4875149;29;20041;-78
2022/02/20 07:21:28;;;;;;;11.27;7.47;;;;;;;2.58;100.00;100478.91;4858743;29;20040;-78
2022/02/20 07:23:55;;;;;;;13.50;7.43;;;;;;;2.59;100.00;100480.56;4868938;29;20567;-77
2022/02/20 07:26:21;;;;;;;9.10;6.30;;;;;;;2.52;100.00;100470.63;4857428;29;20047;-77
2022/02/20 07:28:47;;;;;;;8.73;5.75;;;;;;;2.54;100.00;100473.09;4861383;29;20045;-77
2022/02/20 07:31:12;;;;;;;13.65;6.35;;;;;;;2.57;100.00;100469.47;4855363;29;20139;-77
2022/02/20 07:33:38;;;;;;;9.60;5.70;;;;;;;2.58;100.00;100468.53;4864986;29;20045;-77
2022/02/20 07:36:04;;;;;;;7.57;4.45;;;;;;;2.55;100.00;100468.75;4854565;29;20548;-77
2022/02/20 07:38:30;;;;;;;8.40;5.28;;;;;;;2.59;100.00;100472.81;4858389;29;20663;-77
2022/02/20 07:40:58;;;;;;;11.23;6.53;;;;;;;2.56;100.00;100460.03;4871703;29;20040;-77
2022/02/20 07:43:25;;;;;;;9.45;5.78;;;;;;;2.61;100.00;100473.53;4872333;29;20046;-77
2022/02/20 07:45:51;;;;;;;11.57;6.50;;;;;;;2.59;100.00;100475.38;4858102;29;20041;-79
2022/02/20 07:48:17;;;;;;;13.45;7.20;;;;;;;2.60;100.00;100466.66;4858071;29;20118;-77
2022/02/20 07:50:43;;;;;;;10.63;7.10;;;;;;;2.55;100.00;100463.59;4873481;29;20049;-77
2022/02/20 07:53:09;;;;;;;10.35;7.03;;;;;;;2.56;100.00;100466.03;4872628;29;20108;-78
2022/02/20 07:55:35;;;;;;;10.40;6.97;;;;;;;2.51;100.00;100465.53;4837486;29;20086;-77
2022/02/20 07:58:04;;;;;;;10.23;7.55;;;;;;;2.53;100.00;100469.69;4859265;29;20607;-77
2022/02/20 08:00:32;;;;;;;9.07;6.88;;;;;;;2.51;100.00;100460.38;4855362;29;20500;-78
2022/02/20 08:02:59;;;;;;;9.40;6.40;;;;;;;2.44;100.00;100457.34;4859654;29;20068;-77
2022/02/20 08:05:25;;;;;;;8.93;6.47;;;;;;;2.49;100.00;100457.88;4856143;29;20041;-78
2022/02/20 08:07:50;;;;;;;8.93;6.38;;;;;;;2.48;100.00;100447.59;4843469;29;20045;-78
2022/02/20 08:10:16;;;;;;;6.57;5.63;;;;;;;2.47;100.00;100445.97;4859975;29;20040;-77
2022/02/20 08:12:42;;;;;;;7.95;5.82;;;;;;;2.49;100.00;100454.47;4875273;29;20041;-76
2022/02/20 08:15:08;;;;;;;7.38;5.40;;;;;;;2.43;100.00;100449.66;4865659;29;20025;-77
2022/02/20 08:17:33;;;;;;;6.80;5.40;;;;;;;2.46;100.00;100445.13;4852737;29;20080;-79
2022/02/20 08:19:59;;;;;;;9.23;5.80;;;;;;;2.43;100.00;100452.25;4861010;29;20071;-79
2022/02/20 08:22:25;;;;;;;8.98;5.80;;;;;;;2.48;100.00;100442.44;4843394;29;20041;-76
2022/02/20 08:24:50;;;;;;;6.50;5.43;;;;;;;2.43;100.00;100441.91;4873719;29;20927;-79
2022/02/20 08:27:17;;;;;;;11.27;5.75;;;;;;;2.40;100.00;100432.59;4861295;29;20055;-79
2022/02/20 08:29:43;;;;;;;7.78;6.10;;;;;;;2.37;100.00;100422.44;4876621;29;20439;-78
2022/02/20 08:32:09;;;;;;;9.48;6.68;;;;;;;2.43;100.00;100423.78;4876701;29;20125;-78
2022/02/20 08:34:35;;;;;;;9.38;5.97;;;;;;;2.43;100.00;100418.59;4857178;29;20120;-78
2022/02/20 08:37:02;;;;;;;9.80;7.20;;;;;;;2.34;100.00;100415.69;4846652;29;20049;-79
2022/02/20 08:39:28;;;;;;;11.57;7.45;;;;;;;2.30;100.00;100409.06;4838262;29;20548;-79
2022/02/20 08:41:55;;;;;;;9.90;6.82;;;;;;;2.34;100.00;100399.34;4874023;29;20069;-79
2022/02/20 08:44:22;;;;;;;11.20;7.30;;;;;;;2.35;100.00;100390.63;4834174;29;20036;-77
2022/02/20 08:46:47;;;;;;;12.77;8.10;;;;;;;2.38;100.00;100382.69;4872980;29;20184;-79
2022/02/20 08:49:13;;;;;;;11.93;8.02;;;;;;;2.39;100.00;100375.72;4869443;29;20714;-78
2022/02/20 08:51:39;;;;;;;11.57;7.50;;;;;;;2.30;100.00;100375.44;4866845;29;20045;-78
2022/02/20 08:54:05;;;;;;;11.90;7.75;;;;;;;2.23;100.00;100363.81;4860683;29;20036;-77
2022/02/20 08:56:31;;;;;;;10.48;7.75;;;;;;;2.25;100.00;100354.19;4861340;29;20041;-77
2022/02/20 08:59:00;;;;;;;10.30;7.15;;;;;;;2.30;100.00;100351.31;4857980;29;20048;-78
2022/02/20 09:01:28;;;;;;;10.82;7.00;;;;;;;2.27;100.00;100341.97;4873663;29;20053;-78
2022/02/20 09:04:02;;;;;;;10.55;7.70;;;;;;;2.14;100.00;100339.38;4870019;29;20099;-78
2022/02/20 09:06:32;;;;;;;11.23;7.53;;;;;;;2.14;100.00;100338.56;4854224;29;20148;-78
2022/02/20 09:08:58;;;;;;;10.18;7.53;;;;;;;2.13;100.00;100322.22;4859384;29;20042;-77
2022/02/20 09:11:25;;;;;;;11.15;8.20;;;;;;;2.04;100.00;100306.47;4873471;29;20066;-78
2022/02/20 09:13:52;;;;;;;11.40;7.95;;;;;;;2.08;100.00;100311.31;4866465;29;20124;-79
2022/02/20 09:16:18;;;;;;;11.90;8.55;;;;;;;2.02;100.00;100303.97;4864603;29;20036;-77
2022/02/20 09:18:45;;;;;;;10.60;7.68;;;;;;;2.08;100.00;100295.00;4851956;29;20088;-78
2022/02/20 09:21:11;;;;;;;11.75;8.30;;;;;;;2.07;100.00;100288.13;4875296;29;20041;-78
2022/02/20 09:23:37;;;;;;;12.00;7.63;;;;;;;2.08;100.00;100284.63;4874260;29;20181;-78
2022/02/20 09:26:04;;;;;;;11.27;8.10;;;;;;;2.03;100.00;100266.00;4869317;29;20120;-77
2022/02/20 09:28:31;;;;;;;14.93;9.05;;;;;;;2.05;100.00;100262.38;4863397;29;20190;-78
2022/02/20 09:30:56;;;;;;;14.77;9.60;;;;;;;2.10;100.00;100249.97;4874414;29;20109;-77
2022/02/20 09:33:22;;;;;;;21.83;11.30;;;;;;;2.14;100.00;100254.00;4874214;29;20609;-78
2022/02/20 09:35:48;;;;;;;22.42;10.85;;;;;;;2.05;100.00;100230.50;4854197;29;20041;-78
2022/02/20 09:38:13;;;;;;;52.45;16.52;;;;;;;2.16;100.00;100237.53;4862010;29;20127;-77
2022/02/20 09:40:39;;;;;;;18.23;10.85;;;;;;;2.11;100.00;100222.31;4840856;29;20081;-78
2022/02/20 09:43:05;;;;;;;14.35;9.43;;;;;;;2.17;100.00;100213.31;4879056;29;20132;-78
2022/02/20 09:45:31;;;;;;;12.43;8.50;;;;;;;2.12;100.00;100204.09;4870893;29;20396;-78
2022/02/20 09:48:03;;;;;;;16.52;10.18;;;;;;;2.10;100.00;100205.16;4872737;29;20053;-78
2022/02/20 09:50:29;;;;;;;16.63;8.77;;;;;;;2.16;100.00;100189.19;4850108;29;20108;-79
2022/02/20 09:52:55;;;;;;;12.20;9.15;;;;;;;2.15;100.00;100190.16;4872592;29;20468;-78
2022/02/20 09:55:20;;;;;;;11.25;8.40;;;;;;;2.02;100.00;100179.81;4846647;29;21187;-77
2022/02/20 09:57:46;;;;;;;12.15;8.43;;;;;;;2.11;100.00;100180.91;4845500;29;20523;-78
2022/02/20 10:00:12;;;;;;;11.73;8.25;;;;;;;2.04;100.00;100175.34;4870805;29;20064;-79
2022/02/20 10:02:42;;;;;;;12.35;8.68;;;;;;;2.05;100.00;100164.06;4876332;29;20068;-78
2022/02/20 10:05:19;;;;;;;11.80;8.25;;;;;;;2.00;100.00;100155.81;4856931;29;20040;-78
2022/02/20 10:07:46;;;;;;;11.85;8.40;;;;;;;2.05;100.00;100152.88;4871266;29;20032;-78
2022/02/20 10:10:16;;;;;;;10.82;7.80;;;;;;;1.96;100.00;100131.09;4853332;29;20033;-78
2022/02/20 10:12:42;;;;;;;12.75;8.07;;;;;;;2.00;100.00;100142.88;4856905;29;20042;-78
2022/02/20 10:15:31;;;;;;;10.20;7.30;;;;;;;1.99;100.00;100128.28;4868899;29;20029;-78
2022/02/20 10:18:19;;;;;;;8.20;6.28;;;;;;;1.97;100.00;100118.97;4876710;29;20037;-78
2022/02/20 10:21:08;;;;;;;8.18;5.75;;;;;;;1.91;100.00;100094.38;4867036;29;20067;-77
2022/02/20 10:23:55;;;;;;;8.10;5.72;;;;;;;2.04;100.00;100110.69;4854348;29;20041;-78
2022/02/20 10:26:48;;;;;;;7.47;5.88;;;;;;;1.95;100.00;100093.22;4853905;29;20041;-78
2022/02/20 10:29:32;;;;;;;7.20;5.78;;;;;;;1.96;100.00;100089.72;4869852;29;20126;-79
2022/02/20 10:32:00;;;;;;;7.07;5.15;;;;;;;1.94;100.00;100076.88;4849326;29;20116;-78
2022/02/20 10:34:28;;;;;;;8.13;5.95;;;;;;;2.02;100.00;100091.84;4855316;29;20048;-77
2022/02/20 10:36:55;;;;;;;8.68;5.80;;;;;;;2.01;100.00;100087.59;4857067;29;20037;-78
2022/02/20 10:39:29;;;;;;;7.80;5.65;;;;;;;1.98;100.00;100067.16;4878969;29;20531;-78
2022/02/20 10:41:57;;;;;;;7.53;5.40;;;;;;;2.00;100.00;100060.09;4862694;29;20069;-78
2022/02/20 10:44:24;;;;;;;6.38;4.63;;;;;;;2.04;100.00;100056.34;4868561;29;20197;-78
2022/02/20 10:47:07;;;;;;;6.20;4.82;;;;;;;2.04;100.00;100042.59;4873141;29;20049;-78
2022/02/20 10:49:34;;;;;;;5.18;4.40;;;;;;;2.00;100.00;100028.22;4844140;29;20045;-78
2022/02/20 10:51:59;;;;;;;5.22;4.10;;;;;;;2.02;100.00;100026.38;4862712;29;20688;-77
2022/02/20 10:54:25;;;;;;;5.00;4.10;;;;;;;2.02;100.00;100018.59;4861181;29;20036;-77
2022/02/20 10:56:51;;;;;;;7.00;3.65;;;;;;;2.01;100.00;99994.47;4860462;29;20041;-77
2022/02/20 10:59:20;;;;;;;4.45;3.60;;;;;;;2.05;100.00;99993.31;4863063;29;20077;-77
2022/02/20 11:01:47;;;;;;;6.50;4.00;;;;;;;2.05;100.00;99997.69;4871867;29;20548;-77
2022/02/20 11:04:15;;;;;;;5.70;3.53;;;;;;;2.17;100.00;100001.13;4860094;29;20491;-77
2022/02/20 11:06:49;;;;;;;4.75;3.97;;;;;;;2.09;100.00;99986.16;4857966;29;20072;-78
2022/02/20 11:09:15;;;;;;;5.90;3.40;;;;;;;2.14;100.00;99971.97;4845126;29;20060;-78
2022/02/20 11:11:49;;;;;;;4.30;3.63;;;;;;;2.16;100.00;99961.50;4873568;29;20036;-77
2022/02/20 11:14:18;;;;;;;3.78;3.30;;;;;;;2.17;100.00;99957.16;4875536;29;20671;-76
2022/02/20 11:16:49;;;;;;;5.63;3.40;;;;;;;2.14;100.00;99950.44;4874005;29;20097;-77
2022/02/20 11:19:20;;;;;;;5.85;3.88;;;;;;;2.19;100.00;99926.84;4852758;29;20041;-77
2022/02/20 11:21:51;;;;;;;6.53;4.47;;;;;;;2.37;100.00;99928.03;4871572;29;20041;-77
2022/02/20 11:24:17;;;;;;;5.68;3.92;;;;;;;2.39;100.00;99931.34;4873260;29;20115;-77
2022/02/20 11:26:44;;;;;;;6.43;4.10;;;;;;;2.41;100.00;99916.56;4870389;29;20045;-78
2022/02/20 11:29:11;;;;;;;6.30;4.93;;;;;;;2.46;100.00;99903.25;4866255;29;20124;-77